Time;durP1;ratioP1;P1;durP2;ratioP2;P2;SDS_P1;SDS_P2;PMS_P1;PMS_P2;Temp;Humidity;BMP_temperature;BMP_pressure;BME280_temperature;BME280_humidity;BME280_pressure;Samples;Min_cycle;Max_cycle;Signal;HPM_P1;HPM_P2
2022/01/17 00:01:33;;;;;;;87.72;42.75;;;;;;;;;;5034956;28;20051;-73
2022/01/17 00:04:01;;;;;;;79.85;41.72;;;;;;;;;;5034175;28;20045;-73
2022/01/17 00:06:33;;;;;;;82.28;39.90;;;;;;;;;;5034870;28;20049;-73
2022/01/17 00:09:01;;;;;;;78.80;40.38;;;;;;;;;;5033600;28;20056;-73
2022/01/17 00:11:29;;;;;;;81.55;41.17;;;;;;;;;;5034411;28;20095;-73
2022/01/17 00:19:43;;;;;;;79.80;39.53;;;;;;;;;;5033316;28;20144;-73
2022/01/17 00:22:21;;;;;;;75.25;39.15;;;;;;;;;;5034557;28;20065;-73
2022/01/17 00:24:50;;;;;;;70.65;36.85;;;;;;;;;;5034708;28;20512;-73
2022/01/17 00:27:25;;;;;;;78.32;37.90;;;;;;;;;;5034161;28;20041;-73
2022/01/17 00:29:55;;;;;;;61.80;32.90;;;;;;;;;;5033279;28;20068;-73
2022/01/17 00:32:25;;;;;;;61.40;33.13;;;;;;;;;;5033145;28;20278;-73
2022/01/17 00:35:18;;;;;;;61.13;30.58;;;;;;;;;;5032372;28;20099;-73
2022/01/17 00:44:23;;;;;;;66.78;33.33;;;;;;;;;;5032767;28;20148;-73
2022/01/17 00:47:18;;;;;;;67.72;34.38;;;;;;;;;;5032263;28;20404;-73
2022/01/17 00:50:11;;;;;;;71.25;35.60;;;;;;;;;;5034187;28;20476;-73
2022/01/17 00:53:04;;;;;;;71.20;34.55;;;;;;;;;;5033641;28;20045;-73
2022/01/17 00:55:34;;;;;;;69.28;34.05;;;;;;;;;;5033715;28;20522;-73
2022/01/17 00:58:02;;;;;;;63.97;32.05;;;;;;;;;;5032147;28;20492;-74
2022/01/17 01:00:33;;;;;;;62.85;32.05;;;;;;;;;;5034356;28;20408;-73
2022/01/17 01:03:01;;;;;;;62.47;31.63;;;;;;;;;;5032279;28;20060;-73
2022/01/17 01:05:36;;;;;;;64.05;32.15;;;;;;;;;;5065132;28;20479;-73
2022/01/17 01:08:07;;;;;;;63.00;31.73;;;;;;;;;;5033729;28;20065;-73
2022/01/17 01:10:34;;;;;;;58.72;31.23;;;;;;;;;;5033735;28;20064;-73
2022/01/17 01:13:02;;;;;;;61.50;31.95;;;;;;;;;;5033537;28;20056;-73
2022/01/17 01:16:09;;;;;;;59.13;31.25;;;;;;;;;;5034658;28;20111;-73
2022/01/17 01:18:38;;;;;;;59.25;30.95;;;;;;;;;;5033631;28;20224;-72
2022/01/17 01:29:22;;;;;;;66.50;31.92;;;;;;;;;;5033532;28;20044;-72
2022/01/17 01:32:18;;;;;;;65.22;33.38;;;;;;;;;;5033497;28;20049;-73
2022/01/17 01:34:52;;;;;;;63.95;32.50;;;;;;;;;;5033355;28;20514;-72
2022/01/17 01:37:20;;;;;;;60.72;31.98;;;;;;;;;;5033311;28;20530;-72
2022/01/17 01:39:52;;;;;;;59.70;31.25;;;;;;;;;;5033535;28;20038;-73
2022/01/17 01:42:21;;;;;;;59.35;31.25;;;;;;;;;;5031854;28;20128;-73
2022/01/17 01:44:53;;;;;;;61.50;32.15;;;;;;;;;;5033200;28;20069;-73
2022/01/17 01:47:21;;;;;;;60.85;30.98;;;;;;;;;;5032065;28;20474;-72
2022/01/17 01:49:54;;;;;;;62.65;31.17;;;;;;;;;;5031959;28;20522;-73
2022/01/17 01:52:26;;;;;;;53.35;29.30;;;;;;;;;;5032154;28;20054;-73
2022/01/17 01:54:54;;;;;;;65.25;32.92;;;;;;;;;;5033442;28;20033;-73
2022/01/17 01:57:46;;;;;;;79.43;35.95;;;;;;;;;;5033028;28;20033;-72
2022/01/17 02:00:39;;;;;;;76.75;35.22;;;;;;;;;;5034314;28;20073;-72
2022/01/17 02:06:43;;;;;;;56.15;28.77;;;;;;;;;;5037940;28;20041;-72
2022/01/17 02:09:35;;;;;;;62.50;32.00;;;;;;;;;;5037046;28;20053;-73
2022/01/17 02:12:30;;;;;;;64.50;31.27;;;;;;;;;;5036436;28;20459;-73
2022/01/17 02:15:23;;;;;;;64.55;30.50;;;;;;;;;;5036847;28;20034;-72
2022/01/17 02:18:21;;;;;;;64.97;32.17;;;;;;;;;;5037147;28;20491;-72
2022/01/17 02:24:05;;;;;;;62.65;31.60;;;;;;;;;;5035303;28;20091;-72
2022/01/17 02:26:58;;;;;;;65.90;33.08;;;;;;;;;;5035352;28;20041;-73
2022/01/17 02:29:26;;;;;;;72.32;33.80;;;;;;;;;;5036455;28;20053;-72
2022/01/17 02:32:19;;;;;;;70.22;33.40;;;;;;;;;;5035255;28;20518;-72
2022/01/17 02:35:10;;;;;;;75.07;33.45;;;;;;;;;;5035484;28;20047;-72
2022/01/17 02:37:44;;;;;;;72.60;36.13;;;;;;;;;;5036946;28;20136;-72
2022/01/17 02:40:14;;;;;;;78.65;37.13;;;;;;;;;;5036479;28;20395;-72
2022/01/17 02:42:46;;;;;;;71.30;35.67;;;;;;;;;;5068264;28;20080;-72
2022/01/17 02:48:09;;;;;;;67.65;33.13;;;;;;;;;;5036150;28;20045;-72
2022/01/17 02:50:39;;;;;;;73.30;34.93;;;;;;;;;;5036180;28;20072;-72
2022/01/17 02:53:31;;;;;;;73.75;35.85;;;;;;;;;;5036315;28;20037;-72
2022/01/17 02:56:25;;;;;;;69.47;34.13;;;;;;;;;;5035964;28;20447;-72
2022/01/17 02:58:53;;;;;;;64.93;31.42;;;;;;;;;;5036086;28;20053;-72
2022/01/17 03:04:33;;;;;;;48.47;25.13;;;;;;;;;;5034218;28;20060;-72
2022/01/17 03:07:25;;;;;;;43.38;21.55;;;;;;;;;;5035970;28;20400;-72
2022/01/17 03:10:03;;;;;;;35.20;19.08;;;;;;;;;;5035438;28;20038;-72
2022/01/17 03:12:36;;;;;;;34.75;19.08;;;;;;;;;;5035748;28;20041;-72
2022/01/17 03:15:29;;;;;;;38.05;20.13;;;;;;;;;;5035696;28;20049;-72
2022/01/17 03:18:22;;;;;;;34.10;18.17;;;;;;;;;;5034597;28;20136;-72
2022/01/17 03:20:52;;;;;;;37.30;17.45;;;;;;;;;;5035188;28;20041;-72
2022/01/17 03:23:20;;;;;;;32.75;17.17;;;;;;;;;;5035056;28;20045;-72
2022/01/17 03:26:12;;;;;;;36.22;17.63;;;;;;;;;;5035197;28;20045;-72
2022/01/17 03:35:44;;;;;;;34.58;17.08;;;;;;;;;;5034669;28;20384;-72
2022/01/17 03:38:50;;;;;;;36.35;18.55;;;;;;;;;;5035343;28;20045;-72
2022/01/17 03:41:42;;;;;;;34.33;16.97;;;;;;;;;;5034646;28;20069;-72
2022/01/17 03:44:11;;;;;;;33.25;17.13;;;;;;;;;;5033813;28;20068;-72
2022/01/17 03:46:42;;;;;;;34.67;17.73;;;;;;;;;;5035199;28;20392;-73
2022/01/17 03:49:13;;;;;;;36.13;18.00;;;;;;;;;;5033591;28;20091;-72
2022/01/17 03:51:45;;;;;;;33.90;18.63;;;;;;;;;;5035407;28;20396;-73
2022/01/17 03:54:15;;;;;;;35.00;18.40;;;;;;;;;;5033453;28;20041;-73
2022/01/17 03:56:46;;;;;;;36.67;19.00;;;;;;;;;;5066922;28;20057;-72
2022/01/17 03:59:14;;;;;;;37.33;20.23;;;;;;;;;;5034770;28;20143;-72
2022/01/17 04:04:57;;;;;;;42.38;19.60;;;;;;;;;;5035018;28;20045;-72
2022/01/17 04:11:08;;;;;;;34.50;19.40;;;;;;;;;;5034777;28;20445;-72
2022/01/17 04:13:38;;;;;;;38.10;19.30;;;;;;;;;;5034402;28;20041;-73
2022/01/17 04:16:06;;;;;;;35.05;20.30;;;;;;;;;;5033095;28;20471;-73
2022/01/17 04:18:44;;;;;;;36.50;20.15;;;;;;;;;;5034335;28;20076;-73
2022/01/17 04:21:15;;;;;;;33.67;19.17;;;;;;;;;;5033043;28;20042;-73
2022/01/17 04:23:43;;;;;;;37.58;19.63;;;;;;;;;;5033720;28;20112;-73
2022/01/17 04:26:16;;;;;;;35.38;19.40;;;;;;;;;;5033092;28;20037;-73
2022/01/17 04:28:48;;;;;;;39.95;19.65;;;;;;;;;;5033047;28;20041;-72
2022/01/17 04:31:15;;;;;;;38.75;19.50;;;;;;;;;;5032897;28;20052;-73
2022/01/17 04:33:55;;;;;;;37.72;20.38;;;;;;;;;;5033292;28;20041;-72
2022/01/17 04:36:28;;;;;;;38.60;19.80;;;;;;;;;;5032698;28;20049;-73
2022/01/17 04:38:55;;;;;;;40.50;20.17;;;;;;;;;;5034065;28;20164;-73
2022/01/17 04:41:48;;;;;;;38.22;19.27;;;;;;;;;;5034411;28;20045;-73
2022/01/17 04:47:08;;;;;;;35.90;20.05;;;;;;;;;;5032720;28;20132;-73
2022/01/17 04:49:41;;;;;;;38.40;20.02;;;;;;;;;;5016614;28;20132;-73
2022/01/17 04:52:13;;;;;;;35.13;19.83;;;;;;;;;;5033970;28;20068;-73
2022/01/17 04:54:45;;;;;;;38.90;20.15;;;;;;;;;;5073756;28;20048;-72
2022/01/17 04:57:14;;;;;;;38.92;20.58;;;;;;;;;;5052520;28;20041;-74
2022/01/17 04:59:42;;;;;;;41.42;20.48;;;;;;;;;;5053912;28;20036;-73
2022/01/17 05:05:49;;;;;;;36.65;19.40;;;;;;;;;;5053480;28;20037;-73
2022/01/17 05:08:34;;;;;;;35.28;19.83;;;;;;;;;;5052075;28;20041;-73
2022/01/17 05:11:32;;;;;;;36.22;20.17;;;;;;;;;;5053629;28;20049;-74
2022/01/17 05:14:00;;;;;;;39.47;21.10;;;;;;;;;;5051553;28;20053;-73
2022/01/17 05:16:39;;;;;;;37.65;20.60;;;;;;;;;;5051537;28;20384;-74
2022/01/17 05:21:52;;;;;;;37.40;20.48;;;;;;;;;;5053533;28;20099;-73
2022/01/17 05:27:25;;;;;;;34.92;18.67;;;;;;;;;;5053681;28;20033;-73
2022/01/17 05:30:36;;;;;;;35.72;19.38;;;;;;;;;;5051970;28;20045;-73
2022/01/17 05:33:04;;;;;;;33.20;18.13;;;;;;;;;;5051197;28;20696;-73
2022/01/17 05:39:34;;;;;;;27.30;15.60;;;;;;;;;;5052753;28;20048;-73
2022/01/17 05:45:21;;;;;;;31.45;16.50;;;;;;;;;;5052818;28;20044;-73
2022/01/17 05:47:52;;;;;;;29.83;16.02;;;;;;;;;;5050765;28;20041;-73
2022/01/17 05:50:20;;;;;;;23.58;14.10;;;;;;;;;;5052969;28;20095;-73
2022/01/17 05:56:24;;;;;;;24.88;13.13;;;;;;;;;;5053263;28;20433;-73
2022/01/17 06:06:51;;;;;;;25.40;12.57;;;;;;;;;;5050958;28;20644;-73
2022/01/17 06:13:26;;;;;;;24.02;13.15;;;;;;;;;;5052706;28;20471;-73
2022/01/17 06:15:53;;;;;;;30.42;13.68;;;;;;;;;;5052745;28;20068;-73
2022/01/17 06:22:46;;;;;;;28.38;13.82;;;;;;;;;;5052839;28;20024;-73
2022/01/17 06:25:18;;;;;;;22.65;11.63;;;;;;;;;;5053066;28;20043;-73
2022/01/17 06:27:52;;;;;;;21.70;12.73;;;;;;;;;;5051315;28;20047;-73
2022/01/17 06:30:20;;;;;;;21.38;12.45;;;;;;;;;;5038063;28;20048;-73
2022/01/17 06:32:52;;;;;;;24.33;13.10;;;;;;;;;;5051088;28;20045;-73
2022/01/17 06:35:19;;;;;;;21.17;13.23;;;;;;;;;;5053018;28;20447;-73
2022/01/17 06:37:52;;;;;;;23.40;12.82;;;;;;;;;;5051243;28;20095;-73
2022/01/17 06:40:23;;;;;;;23.88;13.27;;;;;;;;;;5052274;28;20033;-73
2022/01/17 06:42:51;;;;;;;19.48;12.40;;;;;;;;;;5052837;28;20045;-73
2022/01/17 06:45:25;;;;;;;19.65;12.18;;;;;;;;;;5052994;28;20041;-73
2022/01/17 06:47:55;;;;;;;21.75;12.05;;;;;;;;;;5055636;28;20044;-73
2022/01/17 06:50:23;;;;;;;22.05;12.35;;;;;;;;;;5054771;28;20128;-73
2022/01/17 06:52:52;;;;;;;19.75;11.50;;;;;;;;;;5055955;28;20502;-74
2022/01/17 06:55:23;;;;;;;18.92;11.73;;;;;;;;;;5031383;28;20488;-73
2022/01/17 06:57:51;;;;;;;20.90;12.07;;;;;;;;;;5016449;28;20129;-73
2022/01/17 07:00:24;;;;;;;21.63;11.20;;;;;;;;;;5031284;28;20042;-74
2022/01/17 07:02:52;;;;;;;19.05;11.52;;;;;;;;;;5031387;28;20232;-73
2022/01/17 07:05:20;;;;;;;44.22;12.20;;;;;;;;;;5015070;28;20058;-73
2022/01/17 07:07:48;;;;;;;19.73;11.75;;;;;;;;;;5031400;28;20121;-73
2022/01/17 07:10:17;;;;;;;18.63;11.38;;;;;;;;;;5031319;28;20539;-72
2022/01/17 07:12:49;;;;;;;20.65;11.25;;;;;;;;;;5016267;28;20052;-73
2022/01/17 07:15:22;;;;;;;23.00;11.52;;;;;;;;;;5016043;28;20069;-73
2022/01/17 07:17:50;;;;;;;20.30;11.30;;;;;;;;;;5015733;28;20400;-72
2022/01/17 07:20:21;;;;;;;22.25;12.07;;;;;;;;;;5039839;28;20037;-72
2022/01/17 07:22:55;;;;;;;25.40;11.82;;;;;;;;;;5054091;28;20045;-72
2022/01/17 07:25:23;;;;;;;20.73;11.50;;;;;;;;;;5055335;28;20524;-73
2022/01/17 07:27:52;;;;;;;28.85;13.40;;;;;;;;;;5054080;28;20060;-72
2022/01/17 07:30:21;;;;;;;25.27;12.32;;;;;;;;;;5054763;28;20041;-72
2022/01/17 07:32:53;;;;;;;22.33;12.70;;;;;;;;;;5037486;28;20136;-72
2022/01/17 07:35:21;;;;;;;26.02;12.68;;;;;;;;;;5054221;28;20083;-72
2022/01/17 07:41:11;;;;;;;21.77;12.63;;;;;;;;;;5054782;28;20037;-73
2022/01/17 07:44:02;;;;;;;22.65;14.15;;;;;;;;;;5054209;28;20419;-72
2022/01/17 07:50:25;;;;;;;25.42;14.60;;;;;;;;;;5054705;28;20028;-73
2022/01/17 07:53:18;;;;;;;26.70;13.95;;;;;;;;;;5054522;28;20075;-75
2022/01/17 07:56:11;;;;;;;27.35;15.52;;;;;;;;;;5054602;28;20111;-74
2022/01/17 07:58:41;;;;;;;31.13;16.48;;;;;;;;;;5053002;28;20064;-73
2022/01/17 08:01:09;;;;;;;30.75;16.90;;;;;;;;;;5053517;28;20041;-74
2022/01/17 08:03:41;;;;;;;30.83;17.58;;;;;;;;;;5053184;28;20103;-73
2022/01/17 08:06:09;;;;;;;27.38;16.23;;;;;;;;;;5053435;28;20099;-73
2022/01/17 08:09:02;;;;;;;30.02;16.75;;;;;;;;;;5054692;28;20040;-74
2022/01/17 08:11:53;;;;;;;33.75;16.98;;;;;;;;;;5047438;28;20037;-73
2022/01/17 08:14:23;;;;;;;25.63;16.42;;;;;;;;;;5034782;28;20491;-73
2022/01/17 08:20:25;;;;;;;30.25;16.35;;;;;;;;;;5033928;28;20049;-75
2022/01/17 08:23:11;;;;;;;26.67;15.38;;;;;;;;;;5034387;28;20045;-73
2022/01/17 08:25:44;;;;;;;29.17;17.60;;;;;;;;;;5034082;28;20041;-73
2022/01/17 08:28:13;;;;;;;39.28;16.98;;;;;;;;;;5033000;28;20121;-73
2022/01/17 08:31:10;;;;;;;47.90;18.55;;;;;;;;;;5034446;28;20045;-73
2022/01/17 08:33:49;;;;;;;37.95;15.98;;;;;;;;;;5033765;28;20043;-73
2022/01/17 08:36:35;;;;;;;34.15;16.73;;;;;;;;;;5033860;28;20049;-74
2022/01/17 08:39:03;;;;;;;36.30;17.40;;;;;;;;;;5032872;28;20042;-73
2022/01/17 08:41:42;;;;;;;33.88;17.70;;;;;;;;;;5033573;28;20053;-73
2022/01/17 08:44:14;;;;;;;40.10;16.15;;;;;;;;;;5032517;28;20578;-74
2022/01/17 08:46:45;;;;;;;33.10;16.90;;;;;;;;;;5032594;28;20518;-74
2022/01/17 08:49:13;;;;;;;26.10;15.25;;;;;;;;;;5034531;28;20479;-73
2022/01/17 08:51:45;;;;;;;26.25;14.77;;;;;;;;;;5034111;28;20041;-73
2022/01/17 08:54:18;;;;;;;29.48;15.27;;;;;;;;;;5033468;28;20048;-73
2022/01/17 08:56:46;;;;;;;31.05;15.63;;;;;;;;;;5032277;28;20400;-72
2022/01/17 08:59:14;;;;;;;24.73;14.43;;;;;;;;;;5033884;28;20045;-73
2022/01/17 09:01:45;;;;;;;27.17;16.02;;;;;;;;;;5037806;28;20446;-73
2022/01/17 09:04:20;;;;;;;30.27;15.18;;;;;;;;;;5026104;28;20037;-72
2022/01/17 09:06:48;;;;;;;35.38;15.52;;;;;;;;;;5043917;28;20427;-71
2022/01/17 09:09:17;;;;;;;31.23;16.30;;;;;;;;;;5053035;28;20048;-72
2022/01/17 09:11:46;;;;;;;25.15;14.25;;;;;;;;;;5014128;28;20121;-73
2022/01/17 09:14:13;;;;;;;29.98;15.38;;;;;;;;;;5025376;28;20033;-73
2022/01/17 09:16:45;;;;;;;33.55;15.32;;;;;;;;;;5053354;28;20044;-72
2022/01/17 09:19:15;;;;;;;28.15;14.93;;;;;;;;;;5053598;28;20110;-73
2022/01/17 09:21:45;;;;;;;23.75;15.07;;;;;;;;;;5052283;28;20051;-72
2022/01/17 09:24:19;;;;;;;28.30;15.55;;;;;;;;;;5051994;28;20051;-73
2022/01/17 09:26:50;;;;;;;31.05;13.23;;;;;;;;;;5053490;28;20110;-72
2022/01/17 09:29:18;;;;;;;33.25;14.38;;;;;;;;;;5052995;28;20033;-72
2022/01/17 09:32:12;;;;;;;54.35;14.80;;;;;;;;;;5047125;28;20072;-72
2022/01/17 09:35:05;;;;;;;28.20;12.82;;;;;;;;;;5032209;28;20468;-73
2022/01/17 09:37:58;;;;;;;22.20;13.10;;;;;;;;;;5033778;28;20034;-73
2022/01/17 09:40:31;;;;;;;27.30;14.98;;;;;;;;;;5032128;28;20056;-73
2022/01/17 09:43:02;;;;;;;26.35;14.07;;;;;;;;;;5033885;28;20048;-72
2022/01/17 09:45:31;;;;;;;27.77;13.63;;;;;;;;;;5033661;28;20045;-71
2022/01/17 09:48:01;;;;;;;29.67;12.85;;;;;;;;;;5033283;28;20044;-72
2022/01/17 09:50:46;;;;;;;26.80;12.70;;;;;;;;;;5016080;28;20136;-73
2022/01/17 09:53:18;;;;;;;25.50;12.32;;;;;;;;;;5033368;28;20065;-72
2022/01/17 09:55:49;;;;;;;22.08;12.30;;;;;;;;;;5033099;28;20124;-73
2022/01/17 09:58:18;;;;;;;21.75;11.70;;;;;;;;;;5032120;28;20095;-73
2022/01/17 10:01:11;;;;;;;21.92;12.02;;;;;;;;;;5032179;28;20491;-73
2022/01/17 10:04:07;;;;;;;32.72;11.77;;;;;;;;;;5033129;28;20037;-72
2022/01/17 10:06:35;;;;;;;24.15;11.95;;;;;;;;;;5033257;28;20197;-73
2022/01/17 10:09:12;;;;;;;33.40;12.18;;;;;;;;;;5032995;28;20495;-73
2022/01/17 10:12:02;;;;;;;33.83;12.43;;;;;;;;;;5031852;28;20049;-73
2022/01/17 10:14:38;;;;;;;26.08;14.75;;;;;;;;;;5033765;28;20365;-73
2022/01/17 10:17:07;;;;;;;29.13;14.65;;;;;;;;;;5033173;28;20117;-72
2022/01/17 10:19:38;;;;;;;31.35;12.70;;;;;;;;;;5032914;28;20499;-73
2022/01/17 10:22:26;;;;;;;19.55;11.85;;;;;;;;;;5035771;28;20049;-72
2022/01/17 10:25:18;;;;;;;23.83;13.43;;;;;;;;;;5037242;28;20041;-73
2022/01/17 10:37:43;;;;;;;42.97;13.13;;;;;;;;;;5036875;28;20037;-73
2022/01/17 10:40:36;;;;;;;37.80;14.07;;;;;;;;;;5037891;28;20076;-73
2022/01/17 10:43:06;;;;;;;20.83;12.05;;;;;;;;;;5036781;28;20164;-73
2022/01/17 10:45:43;;;;;;;25.67;12.13;;;;;;;;;;5035274;28;20053;-72
2022/01/17 10:48:12;;;;;;;33.53;12.73;;;;;;;;;;5035228;28;20137;-72
2022/01/17 10:51:05;;;;;;;22.75;12.25;;;;;;;;;;5036606;28;20313;-72
2022/01/17 10:53:58;;;;;;;24.25;12.88;;;;;;;;;;5035331;28;20050;-72
2022/01/17 10:56:28;;;;;;;21.33;13.27;;;;;;;;;;5034998;28;20042;-72
2022/01/17 10:59:05;;;;;;;22.73;12.68;;;;;;;;;;5035953;28;20048;-73
2022/01/17 11:01:37;;;;;;;38.63;13.07;;;;;;;;;;5035242;28;20064;-72
2022/01/17 11:04:10;;;;;;;33.10;12.90;;;;;;;;;;5018479;28;20057;-72
2022/01/17 11:06:49;;;;;;;22.27;12.35;;;;;;;;;;5034850;28;20107;-72
2022/01/17 11:09:23;;;;;;;21.83;11.88;;;;;;;;;;5035709;28;20118;-72
2022/01/17 11:11:57;;;;;;;21.25;12.82;;;;;;;;;;5034792;28;20038;-72
2022/01/17 11:14:38;;;;;;;20.05;11.43;;;;;;;;;;5034776;28;20158;-72
2022/01/17 11:17:15;;;;;;;22.80;12.57;;;;;;;;;;5035974;28;20116;-73
2022/01/17 11:22:55;;;;;;;24.00;12.60;;;;;;;;;;5036067;28;20045;-73
2022/01/17 11:25:28;;;;;;;21.98;12.75;;;;;;;;;;5034468;28;20051;-73
2022/01/17 11:28:05;;;;;;;26.00;13.93;;;;;;;;;;5035992;28;20443;-73
2022/01/17 11:30:34;;;;;;;21.00;12.73;;;;;;;;;;5035691;28;20129;-73
2022/01/17 11:33:04;;;;;;;27.13;12.98;;;;;;;;;;5035106;28;20037;-73
2022/01/17 11:35:42;;;;;;;23.48;12.93;;;;;;;;;;5035775;28;20128;-73
2022/01/17 11:38:12;;;;;;;38.65;13.73;;;;;;;;;;5035412;28;20056;-73
2022/01/17 11:41:05;;;;;;;24.83;12.38;;;;;;;;;;5035133;28;20558;-75
2022/01/17 11:43:58;;;;;;;23.23;13.30;;;;;;;;;;5034660;28;20140;-73
2022/01/17 11:46:28;;;;;;;21.85;13.52;;;;;;;;;;5035047;28;20041;-73
2022/01/17 11:52:29;;;;;;;35.80;13.98;;;;;;;;;;5035273;28;20459;-73
2022/01/17 11:55:00;;;;;;;30.23;13.98;;;;;;;;;;5034881;28;20096;-73
2022/01/17 11:57:30;;;;;;;25.83;13.25;;;;;;;;;;5034937;28;20033;-73
2022/01/17 12:00:05;;;;;;;135.63;20.73;;;;;;;;;;5035141;28;20061;-73
2022/01/17 12:02:42;;;;;;;35.88;13.45;;;;;;;;;;5034956;28;20060;-73
2022/01/17 12:05:11;;;;;;;34.50;13.98;;;;;;;;;;5034659;28;20057;-73
2022/01/17 12:07:45;;;;;;;25.45;12.80;;;;;;;;;;5034790;28;20042;-73
2022/01/17 12:10:37;;;;;;;21.35;11.50;;;;;;;;;;5017631;28;20109;-73
2022/01/17 12:13:17;;;;;;;44.60;13.68;;;;;;;;;;5034838;28;20136;-73
2022/01/17 12:15:58;;;;;;;19.98;12.55;;;;;;;;;;5035224;28;20128;-73
2022/01/17 12:18:29;;;;;;;21.48;11.57;;;;;;;;;;5034615;28;20041;-73
2022/01/17 12:21:16;;;;;;;19.30;11.80;;;;;;;;;;5034458;28;20048;-73
2022/01/17 12:23:47;;;;;;;21.73;13.02;;;;;;;;;;5034549;28;20061;-73
2022/01/17 12:26:34;;;;;;;18.35;12.50;;;;;;;;;;5033266;28;20488;-73
2022/01/17 12:29:02;;;;;;;21.75;12.95;;;;;;;;;;5032170;28;20034;-73
2022/01/17 12:31:51;;;;;;;20.70;12.13;;;;;;;;;;5013466;28;20396;-73
2022/01/17 12:34:18;;;;;;;21.45;12.07;;;;;;;;;;5014664;28;20040;-73
2022/01/17 12:36:58;;;;;;;24.33;12.25;;;;;;;;;;5014814;28;20496;-73
2022/01/17 12:39:29;;;;;;;26.50;10.68;;;;;;;;;;5014436;28;20492;-73
2022/01/17 12:42:03;;;;;;;21.55;11.75;;;;;;;;;;5014241;28;20453;-73
2022/01/17 12:44:40;;;;;;;18.00;11.90;;;;;;;;;;5013941;28;20065;-73
2022/01/17 12:47:08;;;;;;;20.55;11.20;;;;;;;;;;5044605;28;20399;-73
2022/01/17 12:50:03;;;;;;;18.60;11.38;;;;;;;;;;5014413;28;20038;-73
2022/01/17 12:52:37;;;;;;;18.55;11.45;;;;;;;;;;5012903;28;20046;-73
2022/01/17 12:55:29;;;;;;;18.98;11.95;;;;;;;;;;5013094;28;20615;-73
2022/01/17 12:58:22;;;;;;;16.13;9.98;;;;;;;;;;5014480;28;20052;-73
2022/01/17 13:00:54;;;;;;;17.73;11.70;;;;;;;;;;5014262;28;20052;-73
2022/01/17 13:03:27;;;;;;;20.35;10.25;;;;;;;;;;5046059;28;20052;-73
2022/01/17 13:05:54;;;;;;;29.05;11.43;;;;;;;;;;5012312;28;20054;-73
2022/01/17 13:08:22;;;;;;;27.98;11.27;;;;;;;;;;5014090;28;20038;-73
2022/01/17 13:11:12;;;;;;;18.02;11.20;;;;;;;;;;5012480;28;20038;-73
2022/01/17 13:13:53;;;;;;;17.75;10.38;;;;;;;;;;5013820;28;20050;-73
2022/01/17 13:16:21;;;;;;;16.27;9.98;;;;;;;;;;5013548;28;20047;-73
2022/01/17 13:19:14;;;;;;;22.10;11.48;;;;;;;;;;5014209;28;20306;-73
2022/01/17 13:21:49;;;;;;;17.80;9.82;;;;;;;;;;5012572;28;20156;-73
2022/01/17 13:24:34;;;;;;;15.10;10.27;;;;;;;;;;5013788;28;20054;-73
2022/01/17 13:27:31;;;;;;;23.92;11.23;;;;;;;;;;5013548;28;20038;-73
2022/01/17 13:30:24;;;;;;;17.95;9.98;;;;;;;;;;5013442;28;20084;-73
2022/01/17 13:33:11;;;;;;;18.75;10.05;;;;;;;;;;5013528;28;20038;-74
2022/01/17 13:35:45;;;;;;;14.77;9.45;;;;;;;;;;5012116;28;20038;-74
2022/01/17 13:38:22;;;;;;;16.50;10.20;;;;;;;;;;5013544;28;20042;-73
2022/01/17 13:40:56;;;;;;;20.25;10.38;;;;;;;;;;5045200;28;20049;-73
2022/01/17 13:43:25;;;;;;;15.85;10.00;;;;;;;;;;5012413;28;20114;-73
2022/01/17 13:45:55;;;;;;;15.32;9.48;;;;;;;;;;5013631;28;20057;-73
2022/01/17 13:48:47;;;;;;;19.05;9.90;;;;;;;;;;5013011;28;20041;-73
2022/01/17 13:51:24;;;;;;;21.90;9.70;;;;;;;;;;5012182;28;20149;-73
2022/01/17 13:53:58;;;;;;;14.65;9.27;;;;;;;;;;5012161;28;20100;-73
2022/01/17 13:56:36;;;;;;;14.65;9.65;;;;;;;;;;5017636;28;20125;-73
2022/01/17 13:59:05;;;;;;;20.77;9.80;;;;;;;;;;5017294;28;20545;-73
2022/01/17 14:01:36;;;;;;;15.55;9.27;;;;;;;;;;5016102;28;20041;-73
2022/01/17 14:04:29;;;;;;;13.20;9.23;;;;;;;;;;5016655;28;20048;-73
2022/01/17 14:07:27;;;;;;;16.73;9.75;;;;;;;;;;5017220;28;20081;-73
2022/01/17 14:10:00;;;;;;;15.82;9.70;;;;;;;;;;5017285;28;20044;-73
2022/01/17 14:12:32;;;;;;;16.27;8.82;;;;;;;;;;5015621;28;20061;-73
2022/01/17 14:15:02;;;;;;;14.00;9.32;;;;;;;;;;5017152;28;20124;-73
2022/01/17 14:17:34;;;;;;;14.00;8.95;;;;;;;;;;5017093;28;20125;-73
2022/01/17 14:20:09;;;;;;;19.77;9.13;;;;;;;;;;5015752;28;20041;-73
2022/01/17 14:22:49;;;;;;;20.50;9.57;;;;;;;;;;5015602;28;20140;-73
2022/01/17 14:25:21;;;;;;;18.50;9.77;;;;;;;;;;5016240;28;20393;-73
2022/01/17 14:28:02;;;;;;;18.75;9.93;;;;;;;;;;5015775;28;20053;-73
2022/01/17 14:30:33;;;;;;;16.90;10.25;;;;;;;;;;5016993;28;20042;-73
2022/01/17 14:33:13;;;;;;;14.98;10.00;;;;;;;;;;5015409;28;20038;-73
2022/01/17 14:36:06;;;;;;;15.70;9.27;;;;;;;;;;5017009;28;20408;-73
2022/01/17 14:38:45;;;;;;;15.40;9.88;;;;;;;;;;5015779;28;20116;-73
2022/01/17 14:41:32;;;;;;;16.05;9.73;;;;;;;;;;5015377;28;20137;-73
2022/01/17 14:44:04;;;;;;;15.70;9.68;;;;;;;;;;5016482;28;20038;-73
2022/01/17 14:46:46;;;;;;;17.48;9.50;;;;;;;;;;5016147;28;20046;-73
2022/01/17 14:49:28;;;;;;;16.00;9.65;;;;;;;;;;5015225;28;20041;-73
2022/01/17 14:52:20;;;;;;;17.13;9.35;;;;;;;;;;5016723;28;20064;-72
2022/01/17 15:01:00;;;;;;;13.52;8.18;;;;;;;;;;5017226;28;20041;-73
2022/01/17 15:03:32;;;;;;;17.13;8.18;;;;;;;;;;5014934;28;20050;-73
2022/01/17 15:06:02;;;;;;;14.27;8.55;;;;;;;;;;5016362;28;20053;-72
2022/01/17 15:08:31;;;;;;;17.35;8.65;;;;;;;;;;5025276;28;20042;-73
2022/01/17 15:11:04;;;;;;;13.68;8.65;;;;;;;;;;5048041;28;20042;-73
2022/01/17 15:13:31;;;;;;;16.10;7.78;;;;;;;;;;5047862;28;20112;-73
2022/01/17 15:16:12;;;;;;;16.75;10.50;;;;;;;;;;5014741;28;20399;-73
2022/01/17 15:18:43;;;;;;;16.80;10.38;;;;;;;;;;5016110;28;20062;-73
2022/01/17 15:21:16;;;;;;;15.48;8.95;;;;;;;;;;5014765;28;20053;-73
2022/01/17 15:23:43;;;;;;;16.75;8.88;;;;;;;;;;5014632;28;20441;-73
2022/01/17 15:26:14;;;;;;;15.40;8.65;;;;;;;;;;5014230;28;20046;-73
2022/01/17 15:29:12;;;;;;;15.75;9.55;;;;;;;;;;5047518;28;20124;-73
2022/01/17 15:32:09;;;;;;;15.48;9.38;;;;;;;;;;5014426;28;20141;-73
2022/01/17 15:35:02;;;;;;;13.57;8.05;;;;;;;;;;5015606;28;20056;-73
2022/01/17 15:37:55;;;;;;;13.77;8.55;;;;;;;;;;5014612;28;20057;-74
2022/01/17 15:40:52;;;;;;;18.48;9.55;;;;;;;;;;5047383;28;20041;-72
2022/01/17 15:43:20;;;;;;;16.83;9.48;;;;;;;;;;5049844;28;20041;-72
2022/01/17 15:45:50;;;;;;;19.23;9.27;;;;;;;;;;5034629;28;20132;-74
2022/01/17 15:48:20;;;;;;;15.65;8.82;;;;;;;;;;5033879;28;20042;-74
2022/01/17 15:51:13;;;;;;;17.40;9.30;;;;;;;;;;5033777;28;20041;-73
2022/01/17 15:53:46;;;;;;;14.65;8.82;;;;;;;;;;5033906;28;20076;-74
2022/01/17 15:56:16;;;;;;;15.55;8.25;;;;;;;;;;5034904;28;20038;-73
2022/01/17 15:58:48;;;;;;;15.00;8.63;;;;;;;;;;5035148;28;20069;-73
2022/01/17 16:01:15;;;;;;;19.10;9.43;;;;;;;;;;5034747;28;20045;-72
2022/01/17 16:04:08;;;;;;;16.42;8.85;;;;;;;;;;5034874;28;20045;-72
2022/01/17 16:06:36;;;;;;;12.45;8.10;;;;;;;;;;5034392;28;20076;-72
2022/01/17 16:09:11;;;;;;;14.80;9.10;;;;;;;;;;5034775;28;20041;-73
2022/01/17 16:11:40;;;;;;;15.18;8.23;;;;;;;;;;5033720;28;20061;-73
2022/01/17 16:14:09;;;;;;;13.13;8.00;;;;;;;;;;5034500;28;20043;-72
2022/01/17 16:16:42;;;;;;;14.00;8.43;;;;;;;;;;5033219;28;20049;-73
2022/01/17 16:19:10;;;;;;;13.93;8.10;;;;;;;;;;5033432;28;20432;-72
2022/01/17 16:21:41;;;;;;;13.85;8.77;;;;;;;;;;5038880;28;20036;-72
2022/01/17 16:24:10;;;;;;;15.18;8.68;;;;;;;;;;5037131;28;20403;-72
2022/01/17 16:26:47;;;;;;;12.43;7.70;;;;;;;;;;5030103;28;20046;-71
2022/01/17 16:29:15;;;;;;;13.07;8.18;;;;;;;;;;5030839;28;20397;-72
2022/01/17 16:31:45;;;;;;;12.70;7.82;;;;;;;;;;5033957;28;20407;-73
2022/01/17 16:34:13;;;;;;;19.13;8.57;;;;;;;;;;5030661;28;20042;-72
2022/01/17 16:36:40;;;;;;;13.75;7.97;;;;;;;;;;5029583;28;20048;-73
2022/01/17 16:39:09;;;;;;;12.75;7.88;;;;;;;;;;5036036;28;20041;-70
2022/01/17 16:41:37;;;;;;;14.40;8.98;;;;;;;;;;5032403;28;20112;-69
2022/01/17 16:44:04;;;;;;;16.73;8.80;;;;;;;;;;5034948;28;20045;-72
2022/01/17 16:46:39;;;;;;;12.65;7.78;;;;;;;;;;5032533;28;20037;-72
2022/01/17 16:49:08;;;;;;;13.57;8.02;;;;;;;;;;5062208;28;20128;-73
2022/01/17 16:52:00;;;;;;;15.57;8.30;;;;;;;;;;5030992;28;20034;-72
2022/01/17 16:54:31;;;;;;;12.38;8.05;;;;;;;;;;5012649;28;20472;-73
2022/01/17 16:57:02;;;;;;;12.57;8.02;;;;;;;;;;5045612;28;20119;-72
2022/01/17 16:59:31;;;;;;;11.85;7.43;;;;;;;;;;5014214;28;20073;-73
2022/01/17 17:02:04;;;;;;;11.30;7.25;;;;;;;;;;5028990;28;20053;-73
2022/01/17 17:04:35;;;;;;;12.10;6.88;;;;;;;;;;5028850;28;20820;-73
2022/01/17 17:07:03;;;;;;;10.82;7.47;;;;;;;;;;5012744;28;20050;-73
2022/01/17 17:09:34;;;;;;;13.07;7.75;;;;;;;;;;5012908;28;20072;-72
2022/01/17 17:12:04;;;;;;;13.98;8.57;;;;;;;;;;5013853;28;20455;-72